sensor_id;sensor_type;location;lat;lon;timestamp;pressure;altitude;pressure_sealevel;temperature;humidity
43125;BME280;49182;50.788;7.318;2023-07-20T00:01:37;100660.69;;;17.87;65.83
43125;BME280;49182;50.788;7.318;2023-07-20T00:04:03;100655.06;;;17.82;67.15
43125;BME280;49182;50.788;7.318;2023-07-20T00:06:30;100659.09;;;17.78;66.77
43125;BME280;49182;50.788;7.318;2023-07-20T00:08:57;100665.81;;;17.74;66.85
43125;BME280;49182;50.788;7.318;2023-07-20T00:11:25;100663.50;;;17.71;67.38
43125;BME280;49182;50.788;7.318;2023-07-20T00:13:51;100662.84;;;17.69;67.38
43125;BME280;49182;50.788;7.318;2023-07-20T00:16:18;100665.88;;;17.66;67.93
43125;BME280;49182;50.788;7.318;2023-07-20T00:18:45;100664.03;;;17.66;67.58
43125;BME280;49182;50.788;7.318;2023-07-20T00:21:11;100663.03;;;17.67;67.61
43125;BME280;49182;50.788;7.318;2023-07-20T00:23:37;100660.34;;;17.67;67.31
43125;BME280;49182;50.788;7.318;2023-07-20T00:26:05;100662.19;;;17.67;68.35
43125;BME280;49182;50.788;7.318;2023-07-20T00:28:32;100657.03;;;17.65;68.27
43125;BME280;49182;50.788;7.318;2023-07-20T00:30:59;100657.84;;;17.66;69.00
43125;BME280;49182;50.788;7.318;2023-07-20T00:33:25;100658.50;;;17.68;68.42
43125;BME280;49182;50.788;7.318;2023-07-20T00:35:52;100651.34;;;17.68;68.41
43125;BME280;49182;50.788;7.318;2023-07-20T00:38:18;100651.16;;;17.70;67.94
43125;BME280;49182;50.788;7.318;2023-07-20T00:40:45;100656.31;;;17.71;68.70
43125;BME280;49182;50.788;7.318;2023-07-20T00:43:12;100654.47;;;17.72;68.52
43125;BME280;49182;50.788;7.318;2023-07-20T00:45:39;100659.28;;;17.76;68.30
43125;BME280;49182;50.788;7.318;2023-07-20T00:48:06;100659.91;;;17.78;68.30
43125;BME280;49182;50.788;7.318;2023-07-20T00:50:32;100663.72;;;17.84;67.79
43125;BME280;49182;50.788;7.318;2023-07-20T00:53:01;100656.34;;;17.86;68.46
43125;BME280;49182;50.788;7.318;2023-07-20T00:55:28;100660.69;;;17.87;68.02
43125;BME280;49182;50.788;7.318;2023-07-20T00:57:55;100664.03;;;17.89;68.29
43125;BME280;49182;50.788;7.318;2023-07-20T01:00:23;100667.53;;;17.90;68.91
43125;BME280;49182;50.788;7.318;2023-07-20T01:02:50;100665.66;;;17.90;68.58
43125;BME280;49182;50.788;7.318;2023-07-20T01:05:17;100666.50;;;17.91;69.27
43125;BME280;49182;50.788;7.318;2023-07-20T01:07:46;100662.47;;;17.95;69.31
43125;BME280;49182;50.788;7.318;2023-07-20T01:10:16;100665.31;;;17.93;69.30
43125;BME280;49182;50.788;7.318;2023-07-20T01:12:46;100668.16;;;17.92;69.17
43125;BME280;49182;50.788;7.318;2023-07-20T01:15:13;100665.50;;;17.92;69.25
43125;BME280;49182;50.788;7.318;2023-07-20T01:17:41;100668.16;;;17.92;69.53
43125;BME280;49182;50.788;7.318;2023-07-20T01:20:08;100668.81;;;17.94;69.33
43125;BME280;49182;50.788;7.318;2023-07-20T01:22:40;100673.88;;;17.89;69.64
43125;BME280;49182;50.788;7.318;2023-07-20T01:25:21;100679.41;;;17.87;69.99
43125;BME280;49182;50.788;7.318;2023-07-20T01:27:57;100674.81;;;17.73;71.24
43125;BME280;49182;50.788;7.318;2023-07-20T01:30:34;100673.47;;;17.77;70.92
43125;BME280;49182;50.788;7.318;2023-07-20T01:33:07;100678.16;;;17.75;71.94
43125;BME280;49182;50.788;7.318;2023-07-20T01:35:35;100669.84;;;17.70;71.87
43125;BME280;49182;50.788;7.318;2023-07-20T01:38:02;100656.50;;;17.70;71.71
43125;BME280;49182;50.788;7.318;2023-07-20T01:40:30;100657.84;;;17.66;71.99
43125;BME280;49182;50.788;7.318;2023-07-20T01:42:56;100658.88;;;17.65;72.26
43125;BME280;49182;50.788;7.318;2023-07-20T01:45:23;100656.56;;;17.62;72.36
43125;BME280;49182;50.788;7.318;2023-07-20T01:47:49;100658.53;;;17.60;73.43
43125;BME280;49182;50.788;7.318;2023-07-20T01:50:17;100662.28;;;17.51;74.16
43125;BME280;49182;50.788;7.318;2023-07-20T01:52:43;100660.44;;;17.51;73.87
43125;BME280;49182;50.788;7.318;2023-07-20T01:55:10;100659.97;;;17.48;74.45
43125;BME280;49182;50.788;7.318;2023-07-20T01:57:37;100661.34;;;17.44;75.09
43125;BME280;49182;50.788;7.318;2023-07-20T02:00:03;100663.16;;;17.43;75.31
43125;BME280;49182;50.788;7.318;2023-07-20T02:02:39;100655.03;;;17.36;76.55
43125;BME280;49182;50.788;7.318;2023-07-20T02:05:06;100655.72;;;17.38;75.84
43125;BME280;49182;50.788;7.318;2023-07-20T02:07:34;100647.69;;;17.38;75.96
43125;BME280;49182;50.788;7.318;2023-07-20T02:10:01;100660.38;;;17.36;76.50
43125;BME280;49182;50.788;7.318;2023-07-20T02:12:27;100658.53;;;17.37;76.23
43125;BME280;49182;50.788;7.318;2023-07-20T02:14:54;100656.03;;;17.35;76.74
43125;BME280;49182;50.788;7.318;2023-07-20T02:17:20;100658.28;;;17.24;78.20
43125;BME280;49182;50.788;7.318;2023-07-20T02:19:49;100657.28;;;17.25;78.07
43125;BME280;49182;50.788;7.318;2023-07-20T02:22:16;100650.13;;;17.25;77.08
43125;BME280;49182;50.788;7.318;2023-07-20T02:24:44;100650.13;;;17.25;77.04
43125;BME280;49182;50.788;7.318;2023-07-20T02:27:10;100653.63;;;17.26;76.76
43125;BME280;49182;50.788;7.318;2023-07-20T02:29:37;100652.31;;;17.22;77.40
43125;BME280;49182;50.788;7.318;2023-07-20T02:32:03;100652.81;;;17.17;77.76
43125;BME280;49182;50.788;7.318;2023-07-20T02:34:30;100648.03;;;17.13;77.76
43125;BME280;49182;50.788;7.318;2023-07-20T02:36:56;100650.22;;;17.09;77.70
43125;BME280;49182;50.788;7.318;2023-07-20T02:39:23;100645.75;;;17.02;78.46
43125;BME280;49182;50.788;7.318;2023-07-20T02:41:51;100649.28;;;16.94;79.30
43125;BME280;49182;50.788;7.318;2023-07-20T02:44:17;100651.81;;;16.87;78.83
43125;BME280;49182;50.788;7.318;2023-07-20T02:46:44;100655.19;;;16.81;78.23
43125;BME280;49182;50.788;7.318;2023-07-20T02:49:10;100656.03;;;16.74;80.11
43125;BME280;49182;50.788;7.318;2023-07-20T02:51:37;100655.06;;;16.67;79.71
43125;BME280;49182;50.788;7.318;2023-07-20T02:54:04;100656.78;;;16.60;79.77
43125;BME280;49182;50.788;7.318;2023-07-20T02:56:30;100651.75;;;16.56;80.03
43125;BME280;49182;50.788;7.318;2023-07-20T02:58:58;100653.94;;;16.53;79.89
43125;BME280;49182;50.788;7.318;2023-07-20T03:01:24;100660.44;;;16.50;80.24
43125;BME280;49182;50.788;7.318;2023-07-20T03:03:51;100650.28;;;16.46;80.10
43125;BME280;49182;50.788;7.318;2023-07-20T03:06:18;100653.66;;;16.40;79.48
43125;BME280;49182;50.788;7.318;2023-07-20T03:08:44;100641.00;;;16.34;79.07
43125;BME280;49182;50.788;7.318;2023-07-20T03:11:11;100646.19;;;16.27;79.46
43125;BME280;49182;50.788;7.318;2023-07-20T03:13:38;100647.19;;;16.18;80.24
43125;BME280;49182;50.788;7.318;2023-07-20T03:16:06;100655.22;;;16.10;80.09
43125;BME280;49182;50.788;7.318;2023-07-20T03:18:32;100653.38;;;16.02;79.78
43125;BME280;49182;50.788;7.318;2023-07-20T03:20:59;100652.38;;;15.95;79.67
43125;BME280;49182;50.788;7.318;2023-07-20T03:23:25;100658.38;;;15.89;80.43
43125;BME280;49182;50.788;7.318;2023-07-20T03:25:52;100666.69;;;15.86;82.38
43125;BME280;49182;50.788;7.318;2023-07-20T03:28:18;100675.69;;;15.77;82.34
43125;BME280;49182;50.788;7.318;2023-07-20T03:30:44;100669.22;;;15.71;82.73
43125;BME280;49182;50.788;7.318;2023-07-20T03:33:13;100680.69;;;15.64;83.44
43125;BME280;49182;50.788;7.318;2023-07-20T03:35:39;100675.84;;;15.59;83.72
43125;BME280;49182;50.788;7.318;2023-07-20T03:38:09;100671.53;;;15.58;83.74
43125;BME280;49182;50.788;7.318;2023-07-20T03:40:35;100662.03;;;15.56;84.46
43125;BME280;49182;50.788;7.318;2023-07-20T03:43:01;100673.84;;;15.53;84.52
43125;BME280;49182;50.788;7.318;2023-07-20T03:45:28;100674.78;;;15.44;85.33
43125;BME280;49182;50.788;7.318;2023-07-20T03:47:54;100673.78;;;15.37;84.80
43125;BME280;49182;50.788;7.318;2023-07-20T03:50:23;100679.75;;;15.31;84.53
43125;BME280;49182;50.788;7.318;2023-07-20T03:52:50;100680.25;;;15.26;84.64
43125;BME280;49182;50.788;7.318;2023-07-20T03:55:16;100675.28;;;15.23;84.78
43125;BME280;49182;50.788;7.318;2023-07-20T03:57:43;100672.44;;;15.25;85.04
43125;BME280;49182;50.788;7.318;2023-07-20T04:00:10;100679.75;;;15.23;85.55
43125;BME280;49182;50.788;7.318;2023-07-20T04:02:39;100673.91;;;15.19;86.10
43125;BME280;49182;50.788;7.318;2023-07-20T04:05:06;100675.09;;;15.17;85.32
43125;BME280;49182;50.788;7.318;2023-07-20T04:07:34;100679.56;;;15.16;85.47
43125;BME280;49182;50.788;7.318;2023-07-20T04:10:00;100677.75;;;15.17;86.38
43125;BME280;49182;50.788;7.318;2023-07-20T04:12:27;100674.09;;;15.18;86.72
43125;BME280;49182;50.788;7.318;2023-07-20T04:14:53;100679.91;;;15.21;86.56
43125;BME280;49182;50.788;7.318;2023-07-20T04:17:20;100685.91;;;15.23;87.25
43125;BME280;49182;50.788;7.318;2023-07-20T04:19:46;100680.41;;;15.25;86.82
43125;BME280;49182;50.788;7.318;2023-07-20T04:22:13;100679.75;;;15.31;86.58
43125;BME280;49182;50.788;7.318;2023-07-20T04:24:41;100682.78;;;15.36;86.57
43125;BME280;49182;50.788;7.318;2023-07-20T04:27:07;100681.44;;;15.40;86.39
43125;BME280;49182;50.788;7.318;2023-07-20T04:29:34;100681.78;;;15.45;86.81
43125;BME280;49182;50.788;7.318;2023-07-20T04:32:00;100685.63;;;15.51;87.12
43125;BME280;49182;50.788;7.318;2023-07-20T04:34:28;100683.16;;;15.57;87.87
43125;BME280;49182;50.788;7.318;2023-07-20T04:36:54;100684.34;;;15.63;86.81
43125;BME280;49182;50.788;7.318;2023-07-20T04:39:22;100686.34;;;15.69;86.59
43125;BME280;49182;50.788;7.318;2023-07-20T04:42:02;100684.69;;;15.76;86.18
43125;BME280;49182;50.788;7.318;2023-07-20T04:44:29;100681.19;;;15.84;86.11
43125;BME280;49182;50.788;7.318;2023-07-20T04:46:55;100697.00;;;15.85;85.79
43125;BME280;49182;50.788;7.318;2023-07-20T04:49:22;100690.03;;;15.92;85.61
43125;BME280;49182;50.788;7.318;2023-07-20T04:51:49;100699.50;;;15.95;85.54
43125;BME280;49182;50.788;7.318;2023-07-20T04:54:16;100700.50;;;16.02;85.31
43125;BME280;49182;50.788;7.318;2023-07-20T04:56:43;100689.84;;;16.10;84.88
43125;BME280;49182;50.788;7.318;2023-07-20T04:59:12;100702.97;;;16.19;84.31
43125;BME280;49182;50.788;7.318;2023-07-20T05:01:39;100697.13;;;16.24;83.68
43125;BME280;49182;50.788;7.318;2023-07-20T05:04:05;100699.94;;;16.31;83.42
43125;BME280;49182;50.788;7.318;2023-07-20T05:06:34;100697.75;;;16.42;82.87
43125;BME280;49182;50.788;7.318;2023-07-20T05:09:01;100703.25;;;16.49;82.69
43125;BME280;49182;50.788;7.318;2023-07-20T05:11:27;100696.59;;;16.53;82.14
43125;BME280;49182;50.788;7.318;2023-07-20T05:13:54;100706.56;;;16.59;81.38
43125;BME280;49182;50.788;7.318;2023-07-20T05:16:22;100705.56;;;16.68;81.17
43125;BME280;49182;50.788;7.318;2023-07-20T05:18:49;100711.41;;;16.72;80.92
43125;BME280;49182;50.788;7.318;2023-07-20T05:21:15;100708.69;;;16.80;80.33
43125;BME280;49182;50.788;7.318;2023-07-20T05:23:42;100707.00;;;16.87;79.73
43125;BME280;49182;50.788;7.318;2023-07-20T05:26:08;100709.97;;;16.92;79.41
43125;BME280;49182;50.788;7.318;2023-07-20T05:28:35;100703.69;;;16.85;79.08
43125;BME280;49182;50.788;7.318;2023-07-20T05:31:02;100713.66;;;16.91;78.52
43125;BME280;49182;50.788;7.318;2023-07-20T05:33:30;100712.84;;;16.90;77.88
43125;BME280;49182;50.788;7.318;2023-07-20T05:35:56;100697.97;;;16.96;78.42
43125;BME280;49182;50.788;7.318;2023-07-20T05:38:22;100704.44;;;17.02;78.06
43125;BME280;49182;50.788;7.318;2023-07-20T05:40:49;100705.41;;;17.09;77.82
43125;BME280;49182;50.788;7.318;2023-07-20T05:43:15;100704.06;;;17.13;77.83
43125;BME280;49182;50.788;7.318;2023-07-20T05:45:42;100701.84;;;17.16;76.93
43125;BME280;49182;50.788;7.318;2023-07-20T05:48:08;100704.19;;;17.19;76.91
43125;BME280;49182;50.788;7.318;2023-07-20T05:50:36;100710.81;;;17.23;76.51
43125;BME280;49182;50.788;7.318;2023-07-20T05:53:02;100709.78;;;17.32;76.20
43125;BME280;49182;50.788;7.318;2023-07-20T05:55:29;100709.50;;;17.27;76.53
43125;BME280;49182;50.788;7.318;2023-07-20T05:57:55;100711.09;;;17.36;76.41
43125;BME280;49182;50.788;7.318;2023-07-20T06:00:22;100711.06;;;17.45;75.77
43125;BME280;49182;50.788;7.318;2023-07-20T06:02:48;100702.34;;;17.51;75.58
43125;BME280;49182;50.788;7.318;2023-07-20T06:05:15;100707.50;;;17.52;75.51
43125;BME280;49182;50.788;7.318;2023-07-20T06:07:43;100706.47;;;17.61;75.21
43125;BME280;49182;50.788;7.318;2023-07-20T06:10:09;100712.88;;;17.75;74.76
43125;BME280;49182;50.788;7.318;2023-07-20T06:12:36;100713.47;;;17.85;74.40
43125;BME280;49182;50.788;7.318;2023-07-20T06:15:02;100720.22;;;17.73;74.12
43125;BME280;49182;50.788;7.318;2023-07-20T06:17:29;100721.22;;;17.72;73.74
43125;BME280;49182;50.788;7.318;2023-07-20T06:19:55;100717.47;;;17.89;73.68
43125;BME280;49182;50.788;7.318;2023-07-20T06:22:22;100726.03;;;17.99;73.35
43125;BME280;49182;50.788;7.318;2023-07-20T06:24:50;100726.81;;;18.08;72.82
43125;BME280;49182;50.788;7.318;2023-07-20T06:27:16;100717.72;;;18.17;72.48
43125;BME280;49182;50.788;7.318;2023-07-20T06:29:42;100716.16;;;18.23;71.97
43125;BME280;49182;50.788;7.318;2023-07-20T06:32:09;100720.41;;;18.32;71.91
43125;BME280;49182;50.788;7.318;2023-07-20T06:34:35;100715.06;;;18.32;70.93
43125;BME280;49182;50.788;7.318;2023-07-20T06:37:02;100726.41;;;18.34;71.16
43125;BME280;49182;50.788;7.318;2023-07-20T06:39:29;100726.16;;;18.43;70.90
43125;BME280;49182;50.788;7.318;2023-07-20T06:42:00;100719.13;;;18.42;70.96
43125;BME280;49182;50.788;7.318;2023-07-20T06:44:26;100725.69;;;18.54;70.71
43125;BME280;49182;50.788;7.318;2023-07-20T06:46:53;100718.47;;;18.63;70.61
43125;BME280;49182;50.788;7.318;2023-07-20T06:49:25;100731.72;;;18.56;69.90
43125;BME280;49182;50.788;7.318;2023-07-20T06:51:52;100726.38;;;18.56;70.21
43125;BME280;49182;50.788;7.318;2023-07-20T06:54:19;100719.28;;;18.64;70.15
43125;BME280;49182;50.788;7.318;2023-07-20T06:56:49;100716.59;;;18.78;69.17
43125;BME280;49182;50.788;7.318;2023-07-20T06:59:37;100720.84;;;18.87;68.91
43125;BME280;49182;50.788;7.318;2023-07-20T07:02:07;100724.44;;;18.80;68.12
43125;BME280;49182;50.788;7.318;2023-07-20T07:04:40;100731.72;;;18.71;68.97
43125;BME280;49182;50.788;7.318;2023-07-20T07:07:07;100732.41;;;18.88;68.88
43125;BME280;49182;50.788;7.318;2023-07-20T07:09:33;100728.69;;;19.04;67.57
43125;BME280;49182;50.788;7.318;2023-07-20T07:11:59;100728.53;;;19.26;66.47
43125;BME280;49182;50.788;7.318;2023-07-20T07:14:26;100729.09;;;19.36;67.23
43125;BME280;49182;50.788;7.318;2023-07-20T07:16:55;100740.88;;;19.42;65.33
43125;BME280;49182;50.788;7.318;2023-07-20T07:19:24;100736.09;;;19.37;65.94
43125;BME280;49182;50.788;7.318;2023-07-20T07:21:50;100732.03;;;19.27;65.61
43125;BME280;49182;50.788;7.318;2023-07-20T07:24:16;100737.13;;;19.36;65.75
43125;BME280;49182;50.788;7.318;2023-07-20T07:26:45;100733.97;;;19.33;65.70
43125;BME280;49182;50.788;7.318;2023-07-20T07:29:12;100731.00;;;19.43;64.64
43125;BME280;49182;50.788;7.318;2023-07-20T07:31:38;100734.41;;;19.51;65.26
43125;BME280;49182;50.788;7.318;2023-07-20T07:34:06;100732.97;;;19.70;64.88
43125;BME280;49182;50.788;7.318;2023-07-20T07:36:33;100733.50;;;19.80;64.50
43125;BME280;49182;50.788;7.318;2023-07-20T07:38:59;100739.56;;;19.89;63.95
43125;BME280;49182;50.788;7.318;2023-07-20T07:41:45;100743.00;;;19.83;63.32
43125;BME280;49182;50.788;7.318;2023-07-20T07:44:12;100738.28;;;19.85;63.69
43125;BME280;49182;50.788;7.318;2023-07-20T07:46:38;100754.16;;;20.07;61.66
43125;BME280;49182;50.788;7.318;2023-07-20T07:49:06;100739.38;;;20.11;62.21
43125;BME280;49182;50.788;7.318;2023-07-20T07:51:33;100741.50;;;20.23;61.51
43125;BME280;49182;50.788;7.318;2023-07-20T07:53:59;100745.41;;;20.20;62.21
43125;BME280;49182;50.788;7.318;2023-07-20T07:56:26;100745.09;;;20.08;62.05
43125;BME280;49182;50.788;7.318;2023-07-20T07:58:52;100749.94;;;20.19;61.30
43125;BME280;49182;50.788;7.318;2023-07-20T08:01:19;100746.41;;;20.19;61.07
43125;BME280;49182;50.788;7.318;2023-07-20T08:03:45;100750.28;;;20.10;61.23
43125;BME280;49182;50.788;7.318;2023-07-20T08:06:14;100754.75;;;20.24;61.27
43125;BME280;49182;50.788;7.318;2023-07-20T08:08:42;100751.66;;;20.27;60.72
43125;BME280;49182;50.788;7.318;2023-07-20T08:11:09;100751.97;;;20.39;60.22
43125;BME280;49182;50.788;7.318;2023-07-20T08:13:36;100749.81;;;20.55;59.80
43125;BME280;49182;50.788;7.318;2023-07-20T08:16:03;100759.38;;;20.37;58.42
43125;BME280;49182;50.788;7.318;2023-07-20T08:18:29;100751.53;;;20.63;59.36
43125;BME280;49182;50.788;7.318;2023-07-20T08:20:56;100753.56;;;20.89;58.81
43125;BME280;49182;50.788;7.318;2023-07-20T08:23:24;100748.00;;;20.90;57.47
43125;BME280;49182;50.788;7.318;2023-07-20T08:25:50;100747.69;;;21.13;56.98
43125;BME280;49182;50.788;7.318;2023-07-20T08:28:17;100766.56;;;20.85;56.43
43125;BME280;49182;50.788;7.318;2023-07-20T08:30:44;100760.66;;;20.69;57.08
43125;BME280;49182;50.788;7.318;2023-07-20T08:33:12;100761.38;;;20.84;56.33
43125;BME280;49182;50.788;7.318;2023-07-20T08:35:39;100764.38;;;21.02;55.04
43125;BME280;49182;50.788;7.318;2023-07-20T08:38:05;100772.06;;;21.12;54.63
43125;BME280;49182;50.788;7.318;2023-07-20T08:40:33;100766.84;;;21.38;54.46
43125;BME280;49182;50.788;7.318;2023-07-20T08:43:00;100762.97;;;21.60;53.70
43125;BME280;49182;50.788;7.318;2023-07-20T08:45:27;100763.81;;;21.61;53.30
43125;BME280;49182;50.788;7.318;2023-07-20T08:47:53;100771.19;;;21.39;51.98
43125;BME280;49182;50.788;7.318;2023-07-20T08:50:21;100764.53;;;21.28;53.66
43125;BME280;49182;50.788;7.318;2023-07-20T08:52:49;100766.59;;;21.26;53.52
43125;BME280;49182;50.788;7.318;2023-07-20T08:55:18;100768.53;;;21.46;53.10
43125;BME280;49182;50.788;7.318;2023-07-20T08:57:46;100767.09;;;21.56;52.26
43125;BME280;49182;50.788;7.318;2023-07-20T09:00:15;100760.13;;;21.75;52.25
43125;BME280;49182;50.788;7.318;2023-07-20T09:02:43;100759.53;;;21.93;51.37
43125;BME280;49182;50.788;7.318;2023-07-20T09:05:11;100765.94;;;21.78;51.68
43125;BME280;49182;50.788;7.318;2023-07-20T09:07:38;100763.66;;;21.82;50.06
43125;BME280;49182;50.788;7.318;2023-07-20T09:10:05;100753.38;;;21.99;49.44
43125;BME280;49182;50.788;7.318;2023-07-20T09:12:34;100750.31;;;22.15;49.93
43125;BME280;49182;50.788;7.318;2023-07-20T09:15:02;100747.38;;;22.30;49.67
43125;BME280;49182;50.788;7.318;2023-07-20T09:17:29;100746.34;;;22.37;49.21
43125;BME280;49182;50.788;7.318;2023-07-20T09:19:56;100757.13;;;22.37;48.46
43125;BME280;49182;50.788;7.318;2023-07-20T09:22:22;100758.16;;;22.23;48.69
43125;BME280;49182;50.788;7.318;2023-07-20T09:24:55;100759.59;;;22.12;49.34
43125;BME280;49182;50.788;7.318;2023-07-20T09:27:22;100754.22;;;22.32;49.03
43125;BME280;49182;50.788;7.318;2023-07-20T09:29:48;100756.91;;;22.45;48.11
43125;BME280;49182;50.788;7.318;2023-07-20T09:32:19;100754.63;;;22.36;48.94
43125;BME280;49182;50.788;7.318;2023-07-20T09:34:49;100757.31;;;22.55;47.78
43125;BME280;49182;50.788;7.318;2023-07-20T09:37:19;100750.69;;;22.51;47.61
43125;BME280;49182;50.788;7.318;2023-07-20T09:39:46;100755.66;;;22.74;46.47
43125;BME280;49182;50.788;7.318;2023-07-20T09:42:15;100751.47;;;22.91;47.34
43125;BME280;49182;50.788;7.318;2023-07-20T09:44:45;100750.63;;;22.91;46.71
43125;BME280;49182;50.788;7.318;2023-07-20T09:47:22;100746.09;;;22.91;45.54
43125;BME280;49182;50.788;7.318;2023-07-20T09:49:57;100752.75;;;22.89;45.75
43125;BME280;49182;50.788;7.318;2023-07-20T09:52:27;100751.72;;;22.83;46.60
43125;BME280;49182;50.788;7.318;2023-07-20T09:54:57;100748.50;;;23.13;46.54
43125;BME280;49182;50.788;7.318;2023-07-20T09:57:23;100760.28;;;23.25;46.12
43125;BME280;49182;50.788;7.318;2023-07-20T09:59:51;100746.31;;;23.41;45.98
43125;BME280;49182;50.788;7.318;2023-07-20T10:02:19;100732.38;;;23.57;45.56
43125;BME280;49182;50.788;7.318;2023-07-20T10:04:47;100737.06;;;23.68;45.18
43125;BME280;49182;50.788;7.318;2023-07-20T10:07:15;100733.94;;;23.71;44.61
43125;BME280;49182;50.788;7.318;2023-07-20T10:09:43;100725.88;;;23.96;43.66
43125;BME280;49182;50.788;7.318;2023-07-20T10:12:12;100726.22;;;24.06;43.16
43125;BME280;49182;50.788;7.318;2023-07-20T10:14:44;100722.72;;;23.74;41.85
43125;BME280;49182;50.788;7.318;2023-07-20T10:17:16;100724.72;;;23.54;41.85
43125;BME280;49182;50.788;7.318;2023-07-20T10:19:44;100739.28;;;23.33;43.09
43125;BME280;49182;50.788;7.318;2023-07-20T10:22:19;100732.31;;;23.26;42.99
43125;BME280;49182;50.788;7.318;2023-07-20T10:24:49;100733.53;;;23.23;43.74
43125;BME280;49182;50.788;7.318;2023-07-20T10:27:16;100733.94;;;23.27;43.11
43125;BME280;49182;50.788;7.318;2023-07-20T10:29:42;100732.72;;;23.23;42.37
43125;BME280;49182;50.788;7.318;2023-07-20T10:32:09;100728.47;;;23.40;43.11
43125;BME280;49182;50.788;7.318;2023-07-20T10:34:36;100728.03;;;23.56;42.92
43125;BME280;49182;50.788;7.318;2023-07-20T10:37:03;100710.97;;;23.62;42.49
43125;BME280;49182;50.788;7.318;2023-07-20T10:39:32;100718.88;;;23.89;42.47
43125;BME280;49182;50.788;7.318;2023-07-20T10:42:02;100715.91;;;23.97;41.97
43125;BME280;49182;50.788;7.318;2023-07-20T10:44:28;100714.81;;;24.04;41.56
43125;BME280;49182;50.788;7.318;2023-07-20T10:46:58;100710.78;;;23.89;39.54
43125;BME280;49182;50.788;7.318;2023-07-20T10:49:25;100712.28;;;24.09;39.13
43125;BME280;49182;50.788;7.318;2023-07-20T10:51:55;100704.81;;;24.36;40.27
43125;BME280;49182;50.788;7.318;2023-07-20T10:54:47;100706.59;;;24.67;39.95
43125;BME280;49182;50.788;7.318;2023-07-20T10:57:29;100701.72;;;24.94;39.37
43125;BME280;49182;50.788;7.318;2023-07-20T11:00:09;100697.22;;;25.06;38.17
43125;BME280;49182;50.788;7.318;2023-07-20T11:02:43;100702.53;;;25.13;36.95
43125;BME280;49182;50.788;7.318;2023-07-20T11:07:51;100690.47;;;25.45;36.76
43125;BME280;49182;50.788;7.318;2023-07-20T11:10:19;100695.38;;;25.36;36.36
43125;BME280;49182;50.788;7.318;2023-07-20T11:15:27;100696.50;;;24.99;37.45
43125;BME280;49182;50.788;7.318;2023-07-20T11:18:13;100699.44;;;24.54;38.31
43125;BME280;49182;50.788;7.318;2023-07-20T11:20:40;100700.19;;;24.43;38.88
43125;BME280;49182;50.788;7.318;2023-07-20T11:23:07;100695.22;;;24.40;38.83
43125;BME280;49182;50.788;7.318;2023-07-20T11:25:39;100700.78;;;24.45;38.92
43125;BME280;49182;50.788;7.318;2023-07-20T11:28:07;100705.88;;;24.35;39.80
43125;BME280;49182;50.788;7.318;2023-07-20T11:30:33;100693.34;;;24.16;40.09
43125;BME280;49182;50.788;7.318;2023-07-20T11:33:00;100698.25;;;24.01;40.66
43125;BME280;49182;50.788;7.318;2023-07-20T11:35:27;100696.31;;;23.83;40.76
43125;BME280;49182;50.788;7.318;2023-07-20T11:37:53;100697.41;;;23.75;41.00
43125;BME280;49182;50.788;7.318;2023-07-20T11:40:21;100696.34;;;23.76;41.76
43125;BME280;49182;50.788;7.318;2023-07-20T11:42:49;100698.63;;;23.79;41.52
43125;BME280;49182;50.788;7.318;2023-07-20T11:45:19;100705.41;;;23.57;41.28
43125;BME280;49182;50.788;7.318;2023-07-20T11:47:45;100705.81;;;23.61;41.94
43125;BME280;49182;50.788;7.318;2023-07-20T11:50:12;100699.03;;;23.76;41.65
43125;BME280;49182;50.788;7.318;2023-07-20T11:52:38;100701.47;;;23.85;41.87
43125;BME280;49182;50.788;7.318;2023-07-20T11:55:05;100700.78;;;23.96;40.55
43125;BME280;49182;50.788;7.318;2023-07-20T11:57:32;100703.47;;;23.96;40.26
43125;BME280;49182;50.788;7.318;2023-07-20T12:00:00;100698.84;;;24.03;40.06
43125;BME280;49182;50.788;7.318;2023-07-20T12:02:30;100700.22;;;24.18;39.90
43125;BME280;49182;50.788;7.318;2023-07-20T12:04:57;100697.53;;;24.18;39.37
43125;BME280;49182;50.788;7.318;2023-07-20T12:07:25;100690.63;;;24.23;39.19
43125;BME280;49182;50.788;7.318;2023-07-20T12:10:05;100703.16;;;24.35;39.32
43125;BME280;49182;50.788;7.318;2023-07-20T12:12:32;100699.31;;;24.49;39.27
43125;BME280;49182;50.788;7.318;2023-07-20T12:15:16;100696.13;;;24.52;37.57
43125;BME280;49182;50.788;7.318;2023-07-20T12:17:42;100699.47;;;24.73;37.55
43125;BME280;49182;50.788;7.318;2023-07-20T12:20:09;100691.78;;;24.88;37.92
43125;BME280;49182;50.788;7.318;2023-07-20T12:22:38;100694.50;;;24.88;37.26
43125;BME280;49182;50.788;7.318;2023-07-20T12:25:05;100689.16;;;25.36;37.39
43125;BME280;49182;50.788;7.318;2023-07-20T12:27:32;100681.59;;;25.68;37.16
43125;BME280;49182;50.788;7.318;2023-07-20T12:29:58;100682.97;;;26.00;36.69
43125;BME280;49182;50.788;7.318;2023-07-20T12:32:26;100673.81;;;26.36;35.48
43125;BME280;49182;50.788;7.318;2023-07-20T12:34:52;100663.22;;;26.58;34.00
43125;BME280;49182;50.788;7.318;2023-07-20T12:37:19;100665.59;;;26.43;33.54
43125;BME280;49182;50.788;7.318;2023-07-20T12:39:45;100663.75;;;26.83;33.44
43125;BME280;49182;50.788;7.318;2023-07-20T12:42:14;100661.31;;;27.10;33.30
43125;BME280;49182;50.788;7.318;2023-07-20T12:44:43;100663.41;;;26.91;32.87
43125;BME280;49182;50.788;7.318;2023-07-20T12:47:09;100671.28;;;26.93;33.44
43125;BME280;49182;50.788;7.318;2023-07-20T12:49:37;100665.03;;;26.92;33.75
43125;BME280;49182;50.788;7.318;2023-07-20T12:52:04;100656.31;;;27.02;33.56
43125;BME280;49182;50.788;7.318;2023-07-20T12:54:31;100655.38;;;26.96;32.99
43125;BME280;49182;50.788;7.318;2023-07-20T12:56:57;100654.47;;;26.68;33.07
43125;BME280;49182;50.788;7.318;2023-07-20T12:59:27;100651.25;;;26.94;32.94